Weather History for Altus, OK

Change the Weather History Date:

Friday, February 15, 2013

  Actual Average (KLTS) Record (KLTS)
Temperature  
Mean Temperature 38 °F -  
Max Temperature 44 °F 55 °F - (-1)
Min Temperature 32 °F 32 °F - (-1)
Degree Days  
Heating Degree Days 27    
Moisture  
Dew Point 25 °F    
Average Humidity 61    
Maximum Humidity 81    
Minimum Humidity 39    
Precipitation  
Precipitation 0.00 in - - ()
Sea Level Pressure  
Sea Level Pressure 30.38 in    
Wind  
Wind Speed 12 mph (NNE)    
Max Wind Speed 21 mph    
Max Gust Speed 30 mph    
Visibility 10 miles    
Events      
Averages and records for this station are not official NWS values.
T = Trace of Precipitation, MM = Missing Value Source: NWS Daily Summary

Daily Weather History Graph

Daily Weather History Graph

Search for Another Location

Airport:

Trip Planner

Search our weather history database for the weather conditions in past years. The results will help you decide how hot, cold, wet, or windy it might be!

Date:

Astronomy

Feb. 15, 2013 Rise Set
Actual Time 7:22 AM CST 6:20 PM CST
Civil Twilight 6:56 AM CST 6:46 PM CST
Nautical Twilight 6:27 AM CST 7:16 PM CST
Astronomical Twilight 5:58 AM CST 7:45 PM CST
Moon 10:15 AM CST (2/15) No Moon Set
Length of Visible Light 11h 49m
Length of Day
10h 58m
Waxing Crescent, 30% of the Moon is Illuminated
Feb 15
Waxing Crescent
Feb 17
First Quarter
Feb 25
Full
Mar 4
Last Quarter
Mar 11
New

Hourly Weather History & Observations

Time (CST) Temp. Windchill Dew Point Humidity Pressure Visibility Wind Dir Wind Speed Gust Speed Precip Events Conditions
12:15 AM 44.6 °F 36.4 °F 33.8 °F 66% 30.25 in 10.0 mi NNE 20.7 mph 29.9 mph N/A   Clear
12:35 AM 42.8 °F 35.8 °F 33.8 °F 70% 30.27 in 10.0 mi NNE 13.8 mph 21.9 mph N/A   Clear
12:55 AM 42.8 °F 35.4 °F 33.8 °F 70% 30.28 in 10.0 mi NNE 15.0 mph 24.2 mph N/A   Clear
1:15 AM 41.0 °F 33.1 °F 33.8 °F 76% 30.29 in 10.0 mi NNE 15.0 mph - N/A   Clear
1:35 AM 41.0 °F 34.3 °F 33.8 °F 76% 30.31 in 10.0 mi North 11.5 mph - N/A   Clear
1:55 AM 39.2 °F 30.8 °F 32.0 °F 75% 30.32 in 10.0 mi NNE 15.0 mph - N/A   Clear
2:15 AM 39.2 °F 31.2 °F 32.0 °F 75% 30.32 in 10.0 mi North 13.8 mph - N/A   Clear
2:35 AM 39.2 °F 31.6 °F 32.0 °F 75% 30.32 in 10.0 mi North 12.7 mph - N/A   Clear
2:55 AM 37.4 °F 28.5 °F 32.0 °F 81% 30.32 in 10.0 mi North 15.0 mph - N/A   Clear
3:15 AM 37.4 °F 28.2 °F 32.0 °F 81% 30.33 in 10.0 mi NNE 16.1 mph - N/A   Clear
3:35 AM 37.4 °F 28.2 °F 30.2 °F 75% 30.32 in 10.0 mi NNE 16.1 mph 23.0 mph N/A   Clear
3:55 AM 37.4 °F 28.2 °F 30.2 °F 75% 30.32 in 10.0 mi NNE 16.1 mph 20.7 mph N/A   Clear
4:15 AM 37.4 °F 28.5 °F 28.4 °F 70% 30.32 in 10.0 mi NNE 15.0 mph - N/A   Scattered Clouds
4:35 AM 37.4 °F 29.3 °F 26.6 °F 65% 30.33 in 10.0 mi NNE 12.7 mph - N/A   Mostly Cloudy
4:55 AM 37.4 °F 28.5 °F 24.8 °F 60% 30.33 in 10.0 mi NNE 15.0 mph 26.5 mph N/A   Mostly Cloudy
5:15 AM 37.4 °F 27.8 °F 23.0 °F 56% 30.33 in 10.0 mi NNE 17.3 mph 24.2 mph N/A   Mostly Cloudy
5:35 AM 37.4 °F 29.8 °F 23.0 °F 56% 30.34 in 10.0 mi NNE 11.5 mph - N/A   Mostly Cloudy
5:55 AM 35.6 °F 25.9 °F 23.0 °F 60% 30.35 in 10.0 mi NNE 16.1 mph - N/A   Mostly Cloudy
6:15 AM 33.8 °F 24.8 °F 23.0 °F 65% 30.36 in 10.0 mi North 12.7 mph - N/A   Scattered Clouds
6:35 AM 33.8 °F 26.4 °F 24.8 °F 70% 30.38 in 10.0 mi NNE 9.2 mph - N/A   Scattered Clouds
6:55 AM 33.8 °F 27.0 °F 24.8 °F 70% 30.39 in 10.0 mi NNE 8.1 mph - N/A   Scattered Clouds
7:15 AM 33.8 °F 28.6 °F 24.8 °F 70% 30.40 in 10.0 mi NNE 5.8 mph - N/A   Scattered Clouds
7:35 AM 32.0 °F 27.5 °F 24.8 °F 75% 30.40 in 10.0 mi NNE 4.6 mph - N/A   Scattered Clouds
7:55 AM 33.8 °F 27.0 °F 26.6 °F 75% 30.40 in 10.0 mi North 8.1 mph - N/A   Clear
8:15 AM 33.8 °F 25.8 °F 26.6 °F 75% 30.41 in 10.0 mi NNE 10.4 mph - N/A   Clear
8:35 AM 33.8 °F 25.8 °F 24.8 °F 70% 30.42 in 10.0 mi NNE 10.4 mph - N/A   Clear
8:55 AM 35.6 °F 28.0 °F 23.0 °F 60% 30.43 in 10.0 mi NE 10.4 mph - N/A   Clear
9:15 AM 35.6 °F 26.6 °F 21.2 °F 56% 30.44 in 10.0 mi NNE 13.8 mph - N/A   Clear
9:35 AM 35.6 °F 26.6 °F 21.2 °F 56% 30.45 in 10.0 mi NNE 13.8 mph - N/A   Clear
9:55 AM 35.6 °F 26.2 °F 19.4 °F 52% 30.45 in 10.0 mi North 15.0 mph - N/A   Clear
10:15 AM 35.6 °F 27.1 °F 21.2 °F 56% 30.46 in 10.0 mi North 12.7 mph - N/A   Clear
10:35 AM 37.4 °F 28.5 °F 21.2 °F 52% 30.45 in 10.0 mi NE 15.0 mph - N/A   Clear
11:15 AM 39.2 °F 32.0 °F 23.0 °F 52% 30.46 in 10.0 mi NNE 11.5 mph - N/A   Scattered Clouds
11:35 AM 39.2 °F 33.6 °F 23.0 °F 52% 30.46 in 10.0 mi North 8.1 mph 19.6 mph N/A   Clear
11:55 AM 39.2 °F 31.6 °F 21.2 °F 49% 30.46 in 10.0 mi North 12.7 mph - N/A   Clear
12:15 PM 41.0 °F 34.7 °F 21.2 °F 45% 30.45 in 10.0 mi NNE 10.4 mph - N/A   Clear
12:35 PM 39.2 °F 32.5 °F 23.0 °F 52% 30.44 in 10.0 mi North 10.4 mph - N/A   Clear
12:55 PM 39.2 °F 34.2 °F 21.2 °F 49% 30.43 in 10.0 mi NNE 6.9 mph - N/A   Clear
1:15 PM 41.0 °F 39.0 °F 21.2 °F 45% 30.42 in 10.0 mi North 3.5 mph - N/A   Clear
1:35 PM 41.0 °F 36.4 °F 21.2 °F 45% 30.41 in 10.0 mi NW 6.9 mph - N/A   Clear
1:55 PM 41.0 °F 35.2 °F 23.0 °F 49% 30.40 in 10.0 mi North 9.2 mph - N/A   Clear
2:15 PM 42.8 °F 40.1 °F 21.2 °F 42% 30.39 in 10.0 mi North 4.6 mph - N/A   Clear
2:35 PM 42.8 °F 40.1 °F 21.2 °F 42% 30.39 in 10.0 mi NW 4.6 mph - N/A   Clear
2:55 PM 42.8 °F - 21.2 °F 42% 30.38 in 10.0 mi Calm Calm - N/A   Clear
3:15 PM 42.8 °F 40.1 °F 21.2 °F 42% 30.38 in 10.0 mi NNE 4.6 mph - N/A   Clear
3:35 PM 44.6 °F - 21.2 °F 39% 30.38 in 10.0 mi Calm Calm - N/A   Clear
3:55 PM 44.6 °F 42.2 °F 21.2 °F 39% 30.38 in 10.0 mi NNW 4.6 mph - N/A   Clear
4:15 PM 44.6 °F 42.2 °F 23.0 °F 43% 30.38 in 10.0 mi North 4.6 mph - N/A   Clear
4:35 PM 44.6 °F - 21.2 °F 39% 30.39 in 10.0 mi Calm Calm - N/A   Clear
4:55 PM 44.6 °F 40.7 °F 23.0 °F 43% 30.39 in 10.0 mi North 6.9 mph - N/A   Clear
5:15 PM 44.6 °F 41.4 °F 21.2 °F 39% 30.39 in 10.0 mi North 5.8 mph - N/A   Clear
5:35 PM 42.8 °F 41.1 °F 23.0 °F 46% 30.38 in 10.0 mi NE 3.5 mph - N/A   Clear
5:55 PM 42.8 °F - 21.2 °F 42% 30.38 in 10.0 mi Calm Calm - N/A   Clear
6:15 PM 42.8 °F - 23.0 °F 46% 30.37 in 10.0 mi Calm Calm - N/A   Clear
6:35 PM 41.0 °F - 23.0 °F 49% 30.38 in 10.0 mi Calm Calm - N/A   Clear
6:55 PM 41.0 °F - 23.0 °F 49% 30.36 in 10.0 mi Calm Calm - N/A   Clear
7:15 PM 37.4 °F 33.8 °F 24.8 °F 60% 30.37 in 10.0 mi ESE 4.6 mph - N/A   Clear
7:35 PM 35.6 °F 30.7 °F 28.4 °F 75% 30.36 in 10.0 mi South 5.8 mph - N/A   Clear
7:55 PM 35.6 °F 30.7 °F 26.6 °F 70% 30.36 in 10.0 mi SSE 5.8 mph - N/A   Clear
8:15 PM 35.6 °F 30.7 °F 28.4 °F 75% 30.36 in 10.0 mi South 5.8 mph - N/A   Clear
8:35 PM 35.6 °F 29.9 °F 28.4 °F 75% 30.36 in 10.0 mi South 6.9 mph - N/A   Clear
8:55 PM 35.6 °F 28.6 °F 26.6 °F 70% 30.35 in 10.0 mi South 9.2 mph - N/A   Clear
9:15 PM 35.6 °F 30.7 °F 26.6 °F 70% 30.36 in 10.0 mi SSW 5.8 mph - N/A   Clear
9:35 PM 33.8 °F 25.8 °F 26.6 °F 75% 30.35 in 10.0 mi SSW 10.4 mph - N/A   Clear
9:55 PM 33.8 °F 27.0 °F 28.4 °F 81% 30.35 in 10.0 mi SSW 8.1 mph - N/A   Clear
10:15 PM 33.8 °F - 26.6 °F 75% 30.38 in 10.0 mi Calm Calm - N/A   Clear
10:35 PM 33.8 °F - 26.6 °F 75% 30.38 in 10.0 mi Calm Calm - N/A   Clear
10:55 PM 32.0 °F 20.8 °F 26.6 °F 80% 30.42 in 10.0 mi North 17.3 mph - N/A   Scattered Clouds
11:15 PM 35.6 °F 28.0 °F 28.4 °F 75% 30.43 in 10.0 mi North 10.4 mph - N/A   Mostly Cloudy
11:35 PM 35.6 °F - 28.4 °F 75% 30.43 in 10.0 mi Calm Calm - N/A   Scattered Clouds